weather.gov     
National Weather Service

Terminal Aerodrome Forecast
NWS Homepage
This page is being discontinued on March 12, 2014.
The same data is available at this site. Please update your bookmarks.
Thank you, and we apologize for the inconvenience.
Please send an email to SR-SRH.Webmaster@noaa.gov with any concerns.


Current Version
Previous Version:    01  02  03  04  05  06  07  08  09  10  11  12  13  14  15  16  17  18  19  20  21  22  23  24  25  26  27  28  29  30  
   31  32  33  34  35  36  37  38  39  40  41  42  43  44  45  46  47  48  49  50  51  52  53  54  55  56  57  58  59  60  
[Printable]
529
FTUS43 KMKX 230257 AAB
TAFMKE
TAF AMD
KMKE 230257Z 2303/2406 19004KT 3SM BR SCT008 SCT015 BKN035
      WS020/23035KT
     FM230600 20009KT 3SM BR SCT008 OVC015 WS020/23035KT
     FM230800 20011KT 2SM -DZ BR OVC008
     FM231500 19011G20KT 2SM -SHRA BR SCT008 OVC012
     FM232000 17013KT 3/4SM RA BR OVC008
     FM232200 16011KT 3/4SM RA BR OVC008
     FM240200 13007KT 1SM RA BR OVC003=


529
FTUS43 KMKX 230257 AAB
TAFMKE
TAF AMD
KMKE 230257Z 2303/2406 19004KT 3SM BR SCT008 SCT015 BKN035
      WS020/23035KT
     FM230600 20009KT 3SM BR SCT008 OVC015 WS020/23035KT
     FM230800 20011KT 2SM -DZ BR OVC008
     FM231500 19011G20KT 2SM -SHRA BR SCT008 OVC012
     FM232000 17013KT 3/4SM RA BR OVC008
     FM232200 16011KT 3/4SM RA BR OVC008
     FM240200 13007KT 1SM RA BR OVC003=




U.S. Dept. of Commerce
NOAA National Weather Service
1325 East West Highway
Silver Spring, MD 20910
E-mail: w-nws.webmaster@noaa.gov
Page last modified: May 16, 2007
NATIONAL WEATHER SERVICE: for Safety, for Work, for Fun - FOR LIFE